createdAt,value
2019-05-10T00:01:17.777Z,0.80
2019-05-10T00:03:39.305Z,0.80
2019-05-10T00:06:00.838Z,1.12
2019-05-10T00:08:22.836Z,0.75
2019-05-10T00:10:44.284Z,1.22
2019-05-10T00:13:06.273Z,0.98
2019-05-10T00:15:28.148Z,0.82
2019-05-10T00:17:49.783Z,1.10
2019-05-10T00:20:11.190Z,0.98
2019-05-10T00:22:32.919Z,0.88
2019-05-10T00:25:03.833Z,0.78
2019-05-10T00:27:18.345Z,0.82
2019-05-10T00:29:39.548Z,0.80
2019-05-10T00:32:00.883Z,1.00
2019-05-10T00:34:22.712Z,0.80
2019-05-10T00:36:44.513Z,0.80
2019-05-10T00:39:06.297Z,0.85
2019-05-10T00:41:28.206Z,0.82
2019-05-10T00:43:50.245Z,1.10
2019-05-10T00:46:11.714Z,0.80
2019-05-10T00:48:33.470Z,0.98
2019-05-10T00:50:55.528Z,0.80
2019-05-10T00:53:17.298Z,0.88
2019-05-10T00:55:39.279Z,0.85
2019-05-10T00:58:01.444Z,0.82
2019-05-10T01:00:22.816Z,0.80
2019-05-10T01:02:44.681Z,0.60
2019-05-10T01:05:06.099Z,0.70
2019-05-10T01:07:27.909Z,0.88
2019-05-10T01:09:49.034Z,0.95
2019-05-10T01:12:10.197Z,0.78
2019-05-10T01:14:31.603Z,0.65
2019-05-10T01:16:53.638Z,0.98
2019-05-10T01:19:15.908Z,0.70
2019-05-10T01:21:38.205Z,0.60
2019-05-10T01:23:59.986Z,0.65
2019-05-10T01:26:21.560Z,0.60
2019-05-10T01:28:43.431Z,0.75
2019-05-10T01:31:04.873Z,0.93
2019-05-10T01:33:26.324Z,0.75
2019-05-10T01:35:47.914Z,0.60
2019-05-10T01:38:09.849Z,0.70
2019-05-10T01:40:31.186Z,0.80
2019-05-10T01:42:53.288Z,0.60
2019-05-10T01:45:14.938Z,0.88
2019-05-10T01:47:36.941Z,0.70
2019-05-10T01:49:58.577Z,0.60
2019-05-10T01:52:20.912Z,1.07
2019-05-10T01:54:42.539Z,0.80
2019-05-10T01:57:04.764Z,0.88
2019-05-10T01:59:26.931Z,0.80
2019-05-10T02:01:48.265Z,0.85
2019-05-10T02:04:09.932Z,0.70
2019-05-10T02:06:32.240Z,0.60
2019-05-10T02:08:54.479Z,0.88
2019-05-10T02:11:15.700Z,0.65
2019-05-10T02:13:37.230Z,0.70
2019-05-10T02:15:58.767Z,0.60
2019-05-10T02:18:21.070Z,0.88
2019-05-10T02:20:42.999Z,0.57
2019-05-10T02:23:04.592Z,0.50
2019-05-10T02:25:26.016Z,1.15
2019-05-10T02:27:48.504Z,0.65
2019-05-10T02:30:11.013Z,0.70
2019-05-10T02:32:32.646Z,0.70
2019-05-10T02:34:54.637Z,0.80
2019-05-10T02:37:16.075Z,0.90
2019-05-10T02:39:38.294Z,0.60
2019-05-10T02:41:59.654Z,0.78
2019-05-10T02:44:21.402Z,0.60
2019-05-10T02:46:43.469Z,0.68
2019-05-10T02:49:04.912Z,0.70
2019-05-10T02:51:26.360Z,0.60
2019-05-10T02:53:48.442Z,0.95
2019-05-10T02:56:29.062Z,0.60
2019-05-10T02:58:32.879Z,0.65
2019-05-10T03:00:54.883Z,0.40
2019-05-10T03:03:16.041Z,0.50
2019-05-10T03:05:37.995Z,0.50
2019-05-10T03:07:59.802Z,0.60
2019-05-10T03:10:20.993Z,0.40
2019-05-10T03:12:42.306Z,0.70
2019-05-10T03:15:04.429Z,0.40
2019-05-10T03:17:26.527Z,0.55
2019-05-10T03:19:47.897Z,0.60
2019-05-10T03:22:09.766Z,0.40
2019-05-10T03:24:32.196Z,0.60
2019-05-10T03:26:54.295Z,0.53
2019-05-10T03:29:16.126Z,0.68
2019-05-10T03:31:38.090Z,0.70
2019-05-10T03:33:59.787Z,0.65
2019-05-10T03:36:21.854Z,0.60
2019-05-10T03:38:42.953Z,0.50
2019-05-10T03:41:04.973Z,0.68
2019-05-10T03:43:26.557Z,0.68
2019-05-10T03:45:48.057Z,0.47
2019-05-10T03:48:09.327Z,0.70
2019-05-10T03:50:30.725Z,0.40
2019-05-10T03:52:52.912Z,0.60
2019-05-10T03:55:14.040Z,0.70
2019-05-10T03:57:35.440Z,0.70
2019-05-10T03:59:57.930Z,0.50
2019-05-10T04:02:19.571Z,0.80
2019-05-10T04:04:41.192Z,0.60
2019-05-10T04:07:02.975Z,0.70
2019-05-10T04:09:25.146Z,0.60
2019-05-10T04:11:47.055Z,0.80
2019-05-10T04:14:08.459Z,0.60
2019-05-10T04:16:30.472Z,0.60
2019-05-10T04:18:51.604Z,0.60
2019-05-10T04:21:13.282Z,0.50
2019-05-10T04:23:34.576Z,0.60
2019-05-10T04:25:56.062Z,0.50
2019-05-10T04:28:17.817Z,0.65
2019-05-10T04:30:40.224Z,0.57
2019-05-10T04:33:02.458Z,0.60
2019-05-10T04:35:23.471Z,0.50
2019-05-10T04:37:45.846Z,0.50
2019-05-10T04:40:07.743Z,0.50
2019-05-10T04:42:29.502Z,0.40
2019-05-10T04:44:53.430Z,0.62
2019-05-10T04:47:14.328Z,0.68
2019-05-10T04:49:35.893Z,0.65
2019-05-10T04:51:57.944Z,0.80
2019-05-10T04:54:19.571Z,0.60
2019-05-10T04:56:42.225Z,1.07
2019-05-10T04:59:03.939Z,1.20
2019-05-10T05:01:25.804Z,1.12
2019-05-10T05:03:47.682Z,1.20
2019-05-10T05:06:09.901Z,0.98
2019-05-10T05:08:32.199Z,1.65
2019-05-10T05:10:53.256Z,1.40
2019-05-10T05:13:15.210Z,1.35
2019-05-10T05:15:36.991Z,1.12
2019-05-10T05:17:58.771Z,1.70
2019-05-10T05:20:20.873Z,1.57
2019-05-10T05:22:42.177Z,1.72
2019-05-10T05:25:03.924Z,1.60
2019-05-10T05:27:25.980Z,1.87
2019-05-10T05:29:47.641Z,1.55
2019-05-10T05:32:13.235Z,1.20
2019-05-10T05:34:32.693Z,1.67
2019-05-10T05:36:54.067Z,1.62
2019-05-10T05:39:15.108Z,1.27
2019-05-10T05:41:47.855Z,1.17
2019-05-10T05:44:00.593Z,1.22
2019-05-10T05:46:21.863Z,1.25
2019-05-10T05:48:43.674Z,1.45
2019-05-10T05:51:05.763Z,1.40
2019-05-10T05:53:28.007Z,1.00
2019-05-10T05:55:49.423Z,1.17
2019-05-10T05:58:25.193Z,1.30
2019-05-10T06:00:37.759Z,1.25
2019-05-10T06:02:57.833Z,2.75
2019-05-10T06:05:34.258Z,0.93
2019-05-10T06:07:42.437Z,1.00
2019-05-10T06:10:03.823Z,1.10
2019-05-10T06:12:25.533Z,1.32
2019-05-10T06:14:49.788Z,1.10
2019-05-10T06:17:10.733Z,0.98
2019-05-10T06:19:32.552Z,1.42
2019-05-10T06:21:58.219Z,1.42
2019-05-10T06:24:17.402Z,1.50
2019-05-10T06:26:38.979Z,1.50
2019-05-10T06:29:04.160Z,1.30
2019-05-10T06:31:22.869Z,1.32
2019-05-10T06:33:46.669Z,1.72
2019-05-10T06:36:08.185Z,1.22
2019-05-10T06:38:29.233Z,1.00
2019-05-10T06:40:50.455Z,1.50
2019-05-10T06:43:13.398Z,0.93
2019-05-10T06:45:35.011Z,1.27
2019-05-10T06:47:56.846Z,1.05
2019-05-10T06:50:29.264Z,1.30
2019-05-10T06:52:43.074Z,1.00
2019-05-10T06:55:05.818Z,1.17
2019-05-10T06:57:27.491Z,0.93
2019-05-10T06:59:48.971Z,1.37
2019-05-10T07:02:10.350Z,1.07
2019-05-10T07:04:36.087Z,1.10
2019-05-10T07:06:55.251Z,1.10
2019-05-10T07:09:16.982Z,0.80
2019-05-10T07:11:39.381Z,0.80
2019-05-10T07:14:01.520Z,1.25
2019-05-10T07:16:25.501Z,0.98
2019-05-10T07:18:46.602Z,0.85
2019-05-10T07:21:08.816Z,1.00
2019-05-10T07:23:30.403Z,0.88
2019-05-10T07:25:52.470Z,0.82
2019-05-10T07:28:15.807Z,0.95
2019-05-10T07:30:41.154Z,1.05
2019-05-10T07:33:02.040Z,1.82
2019-05-10T07:35:24.066Z,1.22
2019-05-10T07:37:47.740Z,1.20
2019-05-10T07:40:08.651Z,0.95
2019-05-10T07:42:30.123Z,1.15
2019-05-10T07:44:52.177Z,1.00
2019-05-10T07:47:14.031Z,0.95
2019-05-10T07:49:36.490Z,1.02
2019-05-10T07:52:02.117Z,1.05
2019-05-10T07:54:20.922Z,1.05
2019-05-10T07:56:45.860Z,0.93
2019-05-10T07:59:05.880Z,1.00
2019-05-10T08:01:32.677Z,0.80
2019-05-10T08:03:52.755Z,0.80
2019-05-10T08:06:15.426Z,1.10
2019-05-10T08:08:39.139Z,0.88
2019-05-10T08:11:00.432Z,1.12
2019-05-10T08:13:25.050Z,1.40
2019-05-10T08:15:45.324Z,0.90
2019-05-10T08:18:09.616Z,1.30
2019-05-10T08:20:43.724Z,1.35
2019-05-10T08:22:54.677Z,0.95
2019-05-10T08:25:15.851Z,1.00
2019-05-10T08:27:43.982Z,1.20
2019-05-10T08:30:20.013Z,1.07
2019-05-10T08:32:29.794Z,1.00
2019-05-10T08:34:54.870Z,0.85
2019-05-10T08:37:12.831Z,0.90
2019-05-10T08:39:44.063Z,1.15
2019-05-10T08:42:04.798Z,1.00
2019-05-10T08:44:23.508Z,0.90
2019-05-10T08:46:44.484Z,1.20
2019-05-10T08:49:06.335Z,0.85
2019-05-10T08:51:29.164Z,1.00
2019-05-10T08:53:53.424Z,1.05
2019-05-10T08:56:21.007Z,1.40
2019-05-10T09:01:26.833Z,0.80
2019-05-10T09:03:42.167Z,0.70
2019-05-10T09:06:15.817Z,0.70
2019-05-10T09:08:31.525Z,0.90
2019-05-10T09:10:52.909Z,1.02
2019-05-10T09:13:14.032Z,0.68
2019-05-10T09:15:43.260Z,0.85
2019-05-10T09:18:04.294Z,0.68
2019-05-10T09:20:26.353Z,1.02
2019-05-10T09:22:45.668Z,1.02
2019-05-10T09:25:07.223Z,0.80
2019-05-10T09:27:30.623Z,0.93
2019-05-10T09:29:55.421Z,0.72
2019-05-10T09:32:21.411Z,0.90
2019-05-10T09:34:42.655Z,1.00
2019-05-10T09:39:32.211Z,1.20
2019-05-10T09:41:54.046Z,0.90
2019-05-10T09:44:16.317Z,0.60
2019-05-10T09:46:37.609Z,0.90
2019-05-10T09:49:06.252Z,0.98
2019-05-10T09:51:27.885Z,1.00
2019-05-10T09:53:48.568Z,1.10
2019-05-10T09:56:09.069Z,1.35
2019-05-10T09:58:31.107Z,1.17
2019-05-10T10:01:10.322Z,1.07
2019-05-10T10:03:16.501Z,0.98
2019-05-10T10:05:40.205Z,0.80
2019-05-10T10:08:03.731Z,0.90
2019-05-10T10:10:30.164Z,1.10
2019-05-10T10:12:47.567Z,0.90
2019-05-10T10:15:13.657Z,0.82
2019-05-10T10:17:38.656Z,0.95
2019-05-10T10:19:57.936Z,2.15
2019-05-10T10:22:20.226Z,0.70
2019-05-10T10:24:42.507Z,0.82
2019-05-10T10:27:04.471Z,1.02
2019-05-10T10:29:28.817Z,1.05
2019-05-10T10:31:55.608Z,0.95
2019-05-10T10:34:13.906Z,0.80
2019-05-10T10:36:40.350Z,0.90
2019-05-10T10:38:59.665Z,0.80
2019-05-10T10:41:26.041Z,1.27
2019-05-10T10:43:45.085Z,0.80
2019-05-10T10:46:11.845Z,1.10
2019-05-10T10:48:29.121Z,0.78
2019-05-10T10:50:55.576Z,1.12
2019-05-10T10:53:14.286Z,0.90
2019-05-10T10:55:39.986Z,1.00
2019-05-10T10:57:59.674Z,1.22
2019-05-10T11:00:23.677Z,1.25
2019-05-10T11:02:46.894Z,0.90
2019-05-10T11:05:08.233Z,1.20
2019-05-10T11:07:30.353Z,1.00
2019-05-10T11:10:04.585Z,1.00
2019-05-10T11:12:21.071Z,1.10
2019-05-10T11:14:43.441Z,1.37
2019-05-10T11:17:03.058Z,1.05
2019-05-10T11:19:25.020Z,1.15
2019-05-10T11:21:46.147Z,0.88
2019-05-10T11:24:10.504Z,1.10
2019-05-10T11:26:32.856Z,0.85
2019-05-10T11:28:53.915Z,0.70
2019-05-10T11:31:16.159Z,1.47
2019-05-10T11:33:37.883Z,0.98
2019-05-10T11:36:03.963Z,1.57
2019-05-10T11:38:23.501Z,1.00
2019-05-10T11:40:44.857Z,1.00
2019-05-10T11:43:06.645Z,1.00
2019-05-10T11:45:34.328Z,1.10
2019-05-10T11:47:54.413Z,1.70
2019-05-10T11:50:27.827Z,1.27
2019-05-10T11:52:37.409Z,1.00
2019-05-10T11:55:01.222Z,1.05
2019-05-10T11:57:24.507Z,0.90
2019-05-10T11:59:45.601Z,0.90
2019-05-10T12:02:10.328Z,0.90
2019-05-10T12:04:38.215Z,1.55
2019-05-10T12:06:53.943Z,1.90
2019-05-10T12:09:15.242Z,1.65
2019-05-10T12:11:51.189Z,1.80
2019-05-10T12:14:02.430Z,2.12
2019-05-10T12:16:23.907Z,1.70
2019-05-10T12:19:01.204Z,1.62
2019-05-10T12:21:11.076Z,1.60
2019-05-10T12:23:31.782Z,1.80
2019-05-10T12:27:06.902Z,2.10
2019-05-10T12:28:24.485Z,1.90
2019-05-10T12:30:40.982Z,1.85
2019-05-10T12:33:09.001Z,1.72
2019-05-10T12:35:26.531Z,2.00
2019-05-10T12:37:54.474Z,2.27
2019-05-10T12:40:17.108Z,1.85
2019-05-10T12:42:38.746Z,2.00
2019-05-10T12:45:01.255Z,1.72
2019-05-10T12:47:23.417Z,1.90
2019-05-10T12:49:45.163Z,1.72
2019-05-10T12:52:09.220Z,1.70
2019-05-10T12:54:31.609Z,1.90
2019-05-10T12:56:52.839Z,1.75
2019-05-10T12:59:14.811Z,1.67
2019-05-10T13:01:37.185Z,1.70
2019-05-10T13:04:01.806Z,1.50
2019-05-10T13:06:22.647Z,1.92
2019-05-10T13:08:44.347Z,2.00
2019-05-10T13:11:06.373Z,1.57
2019-05-10T13:13:29.949Z,1.62
2019-05-10T13:15:51.274Z,1.62
2019-05-10T13:18:12.718Z,1.70
2019-05-10T13:20:36.639Z,1.60
2019-05-10T13:22:58.001Z,1.57
2019-05-10T13:25:20.334Z,1.98
2019-05-10T13:27:42.642Z,1.85
2019-05-10T13:30:04.341Z,1.90
2019-05-10T13:32:26.462Z,2.35
2019-05-10T13:34:47.925Z,1.98
2019-05-10T13:37:13.045Z,2.42
2019-05-10T13:39:33.187Z,2.37
2019-05-10T13:41:57.246Z,2.10
2019-05-10T13:44:18.942Z,2.20
2019-05-10T13:46:39.932Z,2.15
2019-05-10T13:49:01.396Z,1.95
2019-05-10T13:51:22.978Z,1.35
2019-05-10T13:53:44.758Z,1.70
2019-05-10T13:56:06.665Z,1.32
2019-05-10T13:58:28.810Z,1.35
2019-05-10T14:00:50.993Z,1.05
2019-05-10T14:03:13.707Z,1.30
2019-05-10T14:05:35.866Z,1.30
2019-05-10T14:07:56.850Z,1.37
2019-05-10T14:10:23.266Z,1.20
2019-05-10T14:12:42.704Z,1.10
2019-05-10T14:15:09.102Z,1.32
2019-05-10T14:17:29.301Z,2.00
2019-05-10T14:19:51.413Z,2.08
2019-05-10T14:22:13.294Z,1.82
2019-05-10T14:24:35.033Z,1.40
2019-05-10T14:26:59.375Z,1.67
2019-05-10T14:29:20.635Z,1.30
2019-05-10T14:31:42.607Z,1.50
2019-05-10T14:34:15.395Z,1.40
2019-05-10T14:36:28.407Z,1.45
2019-05-10T14:38:53.762Z,1.42
2019-05-10T14:41:13.379Z,1.37
2019-05-10T14:43:35.402Z,1.40
2019-05-10T14:45:57.459Z,1.07
2019-05-10T14:48:27.646Z,1.40
2019-05-10T14:50:46.229Z,1.20
2019-05-10T14:53:05.412Z,1.42
2019-05-10T14:55:28.181Z,1.55
2019-05-10T14:57:50.521Z,1.12
2019-05-10T15:00:13.220Z,1.00
2019-05-10T15:02:35.176Z,1.20
2019-05-10T15:05:00.741Z,1.52
2019-05-10T15:07:19.834Z,1.15
2019-05-10T15:09:41.451Z,1.05
2019-05-10T15:12:04.182Z,1.27
2019-05-10T15:14:25.902Z,1.75
2019-05-10T15:16:47.555Z,1.12
2019-05-10T15:19:09.893Z,1.10
2019-05-10T15:21:34.424Z,0.98
2019-05-10T15:23:55.350Z,0.95
2019-05-10T15:26:17.180Z,0.90
2019-05-10T15:28:40.774Z,1.00
2019-05-10T15:31:02.015Z,1.00
2019-05-10T15:33:24.039Z,1.10
2019-05-10T15:35:51.989Z,1.10
2019-05-10T15:38:10.215Z,1.50
2019-05-10T15:40:32.156Z,1.37
2019-05-10T15:42:54.210Z,1.27
2019-05-10T15:45:19.210Z,2.20
2019-05-10T15:47:50.881Z,2.52
2019-05-10T15:50:02.254Z,2.02
2019-05-10T15:52:23.975Z,1.50
2019-05-10T15:54:47.141Z,1.55
2019-05-10T15:57:09.482Z,1.85
2019-05-10T15:59:30.753Z,1.87
2019-05-10T16:01:52.986Z,2.00
2019-05-10T16:04:14.523Z,2.02
2019-05-10T16:06:37.651Z,1.90
2019-05-10T16:09:03.523Z,2.65
2019-05-10T16:11:23.414Z,2.40
2019-05-10T16:13:45.044Z,2.40
2019-05-10T16:16:06.877Z,2.15
2019-05-10T16:18:33.436Z,2.35
2019-05-10T16:20:51.458Z,2.67
2019-05-10T16:23:13.638Z,2.17
2019-05-10T16:25:41.621Z,2.58
2019-05-10T16:27:58.345Z,2.55
2019-05-10T16:30:20.496Z,1.95
2019-05-10T16:32:43.280Z,2.25
2019-05-10T16:35:12.383Z,1.80
2019-05-10T16:37:33.962Z,2.30
2019-05-10T16:39:54.409Z,2.55
2019-05-10T16:42:16.512Z,2.45
2019-05-10T16:44:38.011Z,2.10
2019-05-10T16:47:00.292Z,1.95
2019-05-10T16:49:22.219Z,1.37
2019-05-10T16:51:47.874Z,1.70
2019-05-10T16:54:10.454Z,1.80
2019-05-10T16:56:30.794Z,1.87
2019-05-10T16:58:53.374Z,1.60
2019-05-10T17:01:18.582Z,1.52
2019-05-10T17:03:38.658Z,1.40
2019-05-10T17:06:04.197Z,1.22
2019-05-10T17:08:23.258Z,1.27
2019-05-10T17:10:45.707Z,1.17
2019-05-10T17:13:07.956Z,1.00
2019-05-10T17:15:33.892Z,1.10
2019-05-10T17:17:53.172Z,1.40
2019-05-10T17:20:15.966Z,1.27
2019-05-10T17:22:38.883Z,1.07
2019-05-10T17:25:03.331Z,1.40
2019-05-10T17:27:23.286Z,1.10
2019-05-10T17:29:49.735Z,1.30
2019-05-10T17:32:08.518Z,1.30
2019-05-10T17:34:30.241Z,2.37
2019-05-10T17:36:58.019Z,2.58
2019-05-10T17:39:17.052Z,2.70
2019-05-10T17:41:38.568Z,2.30
2019-05-10T17:44:00.229Z,2.20
2019-05-10T17:46:22.263Z,2.55
2019-05-10T17:48:47.292Z,2.50
2019-05-10T17:51:07.222Z,2.50
2019-05-10T17:53:28.757Z,6.30
2019-05-10T17:55:55.617Z,5.55
2019-05-10T17:58:16.798Z,9.95
2019-05-10T18:00:36.401Z,18.32
2019-05-10T18:02:57.450Z,9.95
2019-05-10T18:05:19.556Z,9.58
2019-05-10T18:07:41.850Z,22.62
2019-05-10T18:10:03.490Z,14.15
2019-05-10T18:12:27.121Z,11.38
2019-05-10T18:14:50.153Z,7.58
2019-05-10T18:17:11.937Z,5.97
2019-05-10T18:19:33.676Z,7.78
2019-05-10T18:22:00.722Z,6.33
2019-05-10T18:24:18.625Z,4.72
2019-05-10T18:26:41.224Z,4.72
2019-05-10T18:29:03.258Z,4.00
2019-05-10T18:31:25.022Z,4.50
2019-05-10T18:33:54.143Z,4.50
2019-05-10T18:36:11.004Z,4.90
2019-05-10T18:38:37.388Z,4.30
2019-05-10T18:40:57.288Z,4.55
2019-05-10T18:43:18.707Z,4.20
2019-05-10T18:45:41.144Z,4.55
2019-05-10T18:48:02.769Z,4.03
2019-05-10T18:50:25.170Z,4.28
2019-05-10T18:52:46.732Z,3.80
2019-05-10T18:55:07.941Z,3.77
2019-05-10T18:57:30.581Z,3.15
2019-05-10T18:59:52.372Z,3.08
2019-05-10T19:02:17.897Z,3.00
2019-05-10T19:04:37.838Z,3.67
2019-05-10T19:07:09.063Z,3.12
2019-05-10T19:09:23.149Z,2.98
2019-05-10T19:11:45.753Z,2.95
2019-05-10T19:14:07.767Z,3.60
2019-05-10T19:16:32.023Z,3.40
2019-05-10T19:18:56.001Z,2.72
2019-05-10T19:21:15.716Z,3.08
2019-05-10T19:23:38.037Z,2.87
2019-05-10T19:25:59.505Z,3.20
2019-05-10T19:28:26.912Z,3.00
2019-05-10T19:30:44.933Z,3.30
2019-05-10T19:33:06.000Z,3.45
2019-05-10T19:35:29.881Z,2.67
2019-05-10T19:37:50.796Z,2.90
2019-05-10T19:40:12.616Z,4.60
2019-05-10T19:42:37.367Z,3.33
2019-05-10T19:44:57.892Z,3.08
2019-05-10T19:47:20.093Z,2.87
2019-05-10T19:49:45.822Z,2.95
2019-05-10T19:52:04.495Z,3.00
2019-05-10T19:54:26.266Z,2.37
2019-05-10T19:56:49.438Z,2.90
2019-05-10T19:59:13.301Z,2.30
2019-05-10T20:01:33.903Z,3.25
2019-05-10T20:03:56.029Z,2.75
2019-05-10T20:06:18.281Z,2.47
2019-05-10T20:08:39.790Z,2.80
2019-05-10T20:11:01.133Z,2.22
2019-05-10T20:13:23.340Z,2.47
2019-05-10T20:15:44.894Z,2.50
2019-05-10T20:18:07.105Z,2.37
2019-05-10T20:20:29.222Z,2.95
2019-05-10T20:22:50.821Z,2.37
2019-05-10T20:25:12.924Z,2.08
2019-05-10T20:27:34.521Z,2.40
2019-05-10T20:29:56.257Z,2.55
2019-05-10T20:32:18.507Z,2.52
2019-05-10T20:34:40.787Z,2.65
2019-05-10T20:37:02.680Z,2.62
2019-05-10T20:39:24.188Z,2.35
2019-05-10T20:41:45.682Z,2.22
2019-05-10T20:44:07.268Z,2.37
2019-05-10T20:46:28.788Z,2.10
2019-05-10T20:48:50.724Z,2.27
2019-05-10T20:51:12.801Z,2.47
2019-05-10T20:53:34.398Z,2.55
2019-05-10T20:55:57.360Z,2.65
2019-05-10T20:58:18.474Z,2.40
2019-05-10T21:00:40.269Z,2.47
2019-05-10T21:03:01.676Z,2.20
2019-05-10T21:05:23.430Z,1.95
2019-05-10T21:07:45.382Z,2.20
2019-05-10T21:10:07.728Z,2.10
2019-05-10T21:12:29.432Z,2.00
2019-05-10T21:14:50.781Z,2.20
2019-05-10T21:17:13.431Z,1.98
2019-05-10T21:19:34.953Z,2.25
2019-05-10T21:21:57.053Z,2.10
2019-05-10T21:24:18.391Z,2.15
2019-05-10T21:26:40.140Z,1.80
2019-05-10T21:29:01.706Z,1.72
2019-05-10T21:31:23.572Z,1.98
2019-05-10T21:33:45.501Z,1.72
2019-05-10T21:36:06.971Z,1.62
2019-05-10T21:38:33.154Z,1.72
2019-05-10T21:40:52.021Z,1.60
2019-05-10T21:43:13.770Z,1.82
2019-05-10T21:45:36.101Z,1.32
2019-05-10T21:47:57.420Z,1.77
2019-05-10T21:50:19.209Z,1.32
2019-05-10T21:52:40.887Z,1.52
2019-05-10T21:55:02.934Z,2.20
2019-05-10T21:57:24.702Z,1.87
2019-05-10T21:59:46.010Z,1.70
2019-05-10T22:02:08.572Z,1.85
2019-05-10T22:04:30.189Z,1.70
2019-05-10T22:06:52.494Z,1.35
2019-05-10T22:09:14.894Z,1.25
2019-05-10T22:11:36.897Z,1.32
2019-05-10T22:13:58.363Z,1.50
2019-05-10T22:16:20.019Z,1.55
2019-05-10T22:18:41.720Z,1.60
2019-05-10T22:21:03.098Z,1.82
2019-05-10T22:23:24.720Z,1.32
2019-05-10T22:25:46.318Z,1.60
2019-05-10T22:28:07.910Z,1.40
2019-05-10T22:30:29.753Z,1.40
2019-05-10T22:32:52.104Z,1.32
2019-05-10T22:35:15.017Z,1.40
2019-05-10T22:37:37.292Z,1.65
2019-05-10T22:39:58.806Z,1.70
2019-05-10T22:42:20.961Z,1.15
2019-05-10T22:44:43.175Z,1.30
2019-05-10T22:47:05.516Z,1.40
2019-05-10T22:49:27.077Z,1.37
2019-05-10T22:51:48.249Z,1.40
2019-05-10T22:54:09.973Z,1.27
2019-05-10T22:56:31.693Z,1.40
2019-05-10T22:58:53.696Z,1.32
2019-05-10T23:01:16.351Z,1.25
2019-05-10T23:03:38.350Z,1.55
2019-05-10T23:06:00.229Z,1.50
2019-05-10T23:08:22.120Z,1.37
2019-05-10T23:10:44.275Z,1.40
2019-05-10T23:13:06.351Z,1.30
2019-05-10T23:15:28.430Z,1.45
2019-05-10T23:17:49.955Z,1.15
2019-05-10T23:20:11.990Z,1.30
2019-05-10T23:22:34.420Z,1.02
2019-05-10T23:24:56.415Z,1.27
2019-05-10T23:27:17.733Z,1.37
2019-05-10T23:29:39.810Z,1.40
2019-05-10T23:32:01.405Z,1.20
2019-05-10T23:34:23.799Z,1.20
2019-05-10T23:36:45.721Z,1.20
2019-05-10T23:39:07.263Z,1.10
2019-05-10T23:41:28.855Z,1.17
2019-05-10T23:43:50.782Z,1.20
2019-05-10T23:46:12.517Z,1.35
2019-05-10T23:48:33.900Z,1.10
2019-05-10T23:50:55.419Z,1.05
2019-05-10T23:53:17.245Z,1.00
2019-05-10T23:55:38.906Z,1.20
2019-05-10T23:58:00.583Z,1.10
